Aérodrome :
LOGIN :

S'inscrire | Disclaimer

   EN    FR    IT 

 










Légende :    VFR   VFR Marginal   IFR   IFR Intensif   IFR Très Intensif
Visi : 
Plafond : 
>= 8 km
>= 3000ft
5 à 8 km
1000 à 3000 ft
1500m à 5 km
500 à 1000 ft
800 à 1500m
200 à 500 ft
< 800m
< 200 ft
Symboles :   Orages  Brouillard  Fortes neiges  Fortes précipitations  Vent > 20 kt
SIGMETs :   Divers  Orages  Givrage  Turbulence  Onde Orograph.  Cendres Volcan.






- Altitude de l'aérodrome : 1758 ft
- Code IATA : MZH


LTAP - Merzifon AB

DERNIER METAR :
  • 291350Z 14005KT 110V170 9999 SCT040 SCT200 32/05 Q1009 NOSIG RMK RWY23 14006KT

METARs EXPIRÉS :
  • 291320Z 13004KT 110V170 9999 SCT040 SCT200 33/04 Q1010 NOSIG RMK RWY23 16005KT 130V190
  • 291250Z 15009KT 9999 SCT040 33/06 Q1010 NOSIG RMK RWY23 16009KT
  • 291220Z 17005KT 110V230 9999 SCT040 32/06 Q1011 NOSIG RMK RWY23 17006KT 100V220
  • 291150Z VRB03KT 9999 SCT040 34/06 Q1012 NOSIG RMK RWY23 12006KT 070V170
  • 291120Z 14003KT 080V200 9999 FEW040 33/06 Q1012 NOSIG RMK RWY23 VRB04KT

TAF TAF LTAP
Valide du 29 à 12h jusqu'au 30 à 12h UTC


291040Z 2912/3012 VRB02KT 9999 SCT040
PROB40
TEMPO 2915/2919 30015G25KT -TSRA FEW033CB BKN035



MET'MAP, la Météo Aéronautique d'un coup d'oeil ! - Copyright ORBIFLY Décembre 2007 - Disclaimer

ORBIFLY MET'MAP TEAM :

Programmation & Développement : Alexandra Zaïnal
Sur une idée originale de : Baudouin d'Aumeries
Assistance à la programmation : Marc-Olivier Méhu
Soutien technique & logistique : Manuel Goepfert

Contact : metmap@orbifly.com




SOURCES & CREDITS :

   NOAA